Impacts METAR Board INFO
IDs:

KMSP - Minneapolis-St Paul, MN, US

Updated at: 2055 UTC 11 Dec 2017
Potential Impact None Slight Moderate High
Time11/08Z 11/09Z 11/10Z 11/11Z 11/12Z 11/13Z 11/14Z 11/15Z 11/16Z 11/17Z 11/18Z 11/19Z 11/20Z
VIS1.5 8 8 9 9 2.5 3 5 7 8 9 10 10
CIG23 45 40 50 55 34 26 27 18 14 15 20 21
CoverOVCOVCOVCOVCOVCOVCOVCOVCOVCOVCOVCOVCOVC
FltCatIFRVFRVFRVFRVFRIFRMVFRMVFRMVFRMVFRMVFRMVFRMVFR
WX-SN BR---------FZRA BR-SN BRBR----------
WDir1401601501601301402900300340340350340
WSpd7 7 5 6 4 7 3 0 5 13 14 19 19
WGst-- -- -- -- -- -- -- -- -- -- 21 27 25
Raw hourly METARs
KMSP 110759Z 14007KT 1 1/2SM -SN BR OVC023 M04/M04 A2987 RMK AO2 SFC VIS 2 P0000 T10391039
KMSP 110904Z 16007KT 8SM SCT016 OVC045 M03/M04 A2983 RMK AO2 T10331039
KMSP 110953Z 15005KT 8SM BKN040 OVC050 M03/M04 A2980 RMK AO2 SLP101 T10281039
KMSP 111053Z 16006KT 9SM OVC050 M02/M03 A2977 RMK AO2 SLP090 T10221033
KMSP 111153Z 13004KT 9SM OVC055 M02/M03 A2974 RMK AO2 SLP080 4/002 60008 70008 T10171028 11017 21039 56036
KMSP 111303Z 14007KT 2 1/2SM -FZRA BR OVC034 M01/M02 A2970 RMK AO2 TWR VIS 4 FZRAB03SNE03 PRESFR P0003 I1000 T10111017
KMSP 111353Z 29003KT 3SM -SN BR BKN026 OVC034 M01/M01 A2972 RMK AO2 FZRAB03E35SNE03B35PLB22E35 SLP075 P0004 I1000 T10061011
KMSP 111453Z 00000KT 5SM BR OVC027 M01/M01 A2972 RMK AO2 SLP074 FZRAB36E45PLB16E29B36E45SNE09B25E36 P0002 60009 I1000 I3000 T10061011 56006
KMSP 111553Z 30005KT 7SM BKN018 OVC026 01/00 A2975 RMK AO2 SLP083 T00060000
KMSP 111704Z 34013KT 8SM BKN014 OVC030 01/M01 A2977 RMK AO2 T00111006
KMSP 111753Z 34014G21KT 9SM BKN015 OVC025 02/M01 A2980 RMK AO2 SLP102 4/003 60010 I6000 T00171006 10017 21017 53027
KMSP 111853Z 35019G27KT 10SM SCT015 OVC020 02/M01 A2983 RMK AO2 PK WND 36027/1846 SLP112 T00171011
KMSP 111953Z 34019G25KT 10SM OVC021 01/M02 A2988 RMK AO2 PK WND 35030/1905 SLP130 T00111022